Terminal Aerodrome Forecast
Issued by NWS

Home | Current Version | Previous Version | Text Only | Print | Product List | Glossary On
Versions: 1 2 3 4 5 6 7 8 9 10 11 12 13 14 15 16 17 18
000
FTUS43 KGRR 300600 AAA
TAFMKG
TAF AMD
KMKG 300653Z 3007/3106 01014G27KT P6SM -SN FEW025 OVC040
      TEMPO 3007/3010 2SM -SHSN OVC025
     FM301000 34010G18KT P6SM -SN BKN040
     FM301800 31007KT P6SM BKN040=

USA.gov is the U.S. government's official web portal to all federal, state and local government web resources and services.